AVIATION WEATHER REPORT

                                                                                                   GENERAL AVIATION FORECAST ST. MAARTEN

 

 

DATE ISSUED: October 18, 2017 VALID TIME: 12:00 -24:000Z

AREA OF COVERAGE: TNCM TMA (Bounded by 18.25N 063.39W, 18.25N 062.51W, 17.47N 062.22W, 17.26N 062.53W, 17.36N 063.39W AND 18.25N 063.39W)

LEVELS OF COVERAGE: MSL TO FL100

SIG. WX: VCSH

SIG. CLDS: FEW TCU, 1800-2200FT AND TOPS ABV FL100

SFC. VIS: 10 KM+

FCST WNDS/TEMP ALOFT: 18/18:00Z

LEVEL

WINDS

TEMP

0500 FT

100/20KT

+27

1000 FT

100/25KT

+25

2000 FT

100/25KT

+23

3000 FT

100/25KT

+19

FL050

110/25KT

+20

FL080

110/25KT

+13

FL100

100/20KT

+09

FZL: ABOVE FL100 SPECIAL FEATURES: NONE TAF:

 

TNCM 181140Z 1812/1912 12012KT P6SM VCSH SCT020 FM190000 11015KT P6SM SCT020

FORECASTER: PIERRE.

 

                                             Meteorological Department St. Maarten

 

 

TNCM 181731Z 1818/1918 12012KT 3SM HZ VCSH BKN020
     FM182000 11012KT P6SM SCT020
TAF COR TAPA 181730Z 1818/1918 10014KT 8000 FEW022

TAF TFFR 181700Z 1818/1918 10015KT 9999 SCT030 TEMPO 1818/1918 11015G25KT 5000 HZ
PROB30 TEMPO 1903/1912 4000 SHRA SCT015TCU

TJSJ 181731Z 1818/1918 10014KT 6SM HZ VCSH SCT030 OVC070 TEMPO 1818/1819 6SM SHRA SCT030
FM182000 10006KT P6SM FEW030 SCT050

TAF TXKF 181731Z 1818/1918 05015KT 9999 VCSH FEW015 SCT040 BKN300 BECMG 1909/1912 10015KT 9000 -SHRA SCT010 BKN015
PROB40 TEMPO 1912/1918 3200 SHRA VCTS SCT008 BKN012CB

TAF LPAZ 181700Z 1818/1924 28015KT 9999 SCT012
PROB30 TEMPO 1818/1908 28020G30KT 5000 -RADZ BR SCT006 BKN012 BECMG 1918/1921 25015KT

TAF LPLA 181707Z 1818/1918 27010KT 9999 SCT025 BECMG 1910/1913 24015KT
TEMPO 1911/1918 25018G28KT BKN020

TAF LPPT 181700Z 1818/1924 21008KT 9999 FEW018 BKN030 BECMG 1818/1821 VRB03KT 6000 -RA BKN015
TEMPO 1821/1904 3000 +RA SCT003 BKN008

17.36N 63.40W and 18.30N 63.40W).
Levels of Coverage: MSL to FL100.
SIG WX: ISOL SHRA.
SIG CLDS: FEW TCU 1000 - 1500FT AND TOPS ABV FL100.
SCT/ BKN LYR SC/AC 2000 - 3500FT AND TOPS ABV FL100.
SFC VIS: 10+ KM, 3 - 7 KM IN SHRA.
FCST WNDS/TEMP ALOFT: 14/ 18:00Z
0500 FT.. 200/10KT +26 FL050.....220/10KT +16
1000 FT.. 200/10KT +24 FL080.....220/05KT +11
2000 FT.. 210/15KT +22 FL100.....200/10KT +08
3000 FT.. 210/15KT +19
FZL: ABV FL100.
SPECIAL FEATURES:
NONE.
TAFS:
TAF TNCM 141200Z 1412/1512 14012KT P6SM VCSH BKN018 BKN035
FM141800 21008KT P6SM VCSH SCT022 SCT050=
Forecaster: DJF.

Save

Save

Save

Save

Save

Save

Save

Save

Save

Save

Save

Save

Save

Save

Save

Save

Save

Save

Save

Save

Save

Save

Save

Save

Save

Save

Save

Save

Save

Save

Save

Save

Save

Save

Save

Save

Save

Save

Save

Save

Save

Save

Save

Save

Save

Save

Save

Save

Save

Save

Save

Save

Save

Save

Save

Save

Save

Save

Save

Save

Save

Save

Save

Save

Save

Save

Save

Save

Save

Save

Save

Save

Save

Save

Save

Save

Save

Save

Save

Save

Save

Save

Save

Save

Save

Save

Save

Save

Save

Save

Save

Save

Save

Save

Save

Save

Save

Save

Save

Save

Save

Save

Save

Save

Save

Save

Save

Save

Save

Save

Save

Save

Save

Save

Save

Save

Save

Save

Save

Save

Save

Save

Save

Save

Save

Save

Save

Save

Save

Save

Save

Save

Save

Save

Save

Save

Save

Save

Save

Download attachments:
Rate this item
(0 votes)

Add comment

Security code
Refresh

International News

Go to top